sensor_id;sensor_type;location;lat;lon;timestamp;pressure;altitude;pressure_sealevel;temperature;humidity
17521;BME280;8878;-33.370;-70.552;2023-02-11T00:01:46;91750.59;;;30.85;31.36
17521;BME280;8878;-33.370;-70.552;2023-02-11T00:04:15;91758.00;;;30.88;31.47
17521;BME280;8878;-33.370;-70.552;2023-02-11T00:06:45;91743.22;;;30.86;31.05
17521;BME280;8878;-33.370;-70.552;2023-02-11T00:09:14;91750.84;;;30.53;30.50
17521;BME280;8878;-33.370;-70.552;2023-02-11T00:11:44;91748.16;;;30.43;30.94
17521;BME280;8878;-33.370;-70.552;2023-02-11T00:14:14;91754.81;;;30.34;30.98
17521;BME280;8878;-33.370;-70.552;2023-02-11T00:16:45;91760.28;;;30.31;30.30
17521;BME280;8878;-33.370;-70.552;2023-02-11T00:19:15;91757.47;;;30.45;30.59
17521;BME280;8878;-33.370;-70.552;2023-02-11T00:21:44;91762.53;;;30.43;31.30
17521;BME280;8878;-33.370;-70.552;2023-02-11T00:24:13;91764.91;;;30.34;31.34
17521;BME280;8878;-33.370;-70.552;2023-02-11T00:26:43;91765.00;;;30.23;32.23
17521;BME280;8878;-33.370;-70.552;2023-02-11T00:29:12;91764.34;;;29.98;32.54
17521;BME280;8878;-33.370;-70.552;2023-02-11T00:31:42;91765.56;;;29.76;33.04
17521;BME280;8878;-33.370;-70.552;2023-02-11T00:34:13;91764.00;;;29.75;32.80
17521;BME280;8878;-33.370;-70.552;2023-02-11T00:36:42;91750.84;;;29.63;33.24
17521;BME280;8878;-33.370;-70.552;2023-02-11T00:39:11;91758.63;;;29.46;33.98
17521;BME280;8878;-33.370;-70.552;2023-02-11T00:41:41;91761.34;;;29.29;33.67
17521;BME280;8878;-33.370;-70.552;2023-02-11T00:44:10;91760.22;;;29.19;34.67
17521;BME280;8878;-33.370;-70.552;2023-02-11T00:46:39;91766.44;;;29.19;34.76
17521;BME280;8878;-33.370;-70.552;2023-02-11T00:49:09;91764.09;;;29.18;34.27
17521;BME280;8878;-33.370;-70.552;2023-02-11T00:51:40;91774.97;;;29.18;34.50
17521;BME280;8878;-33.370;-70.552;2023-02-11T00:54:10;91768.75;;;29.07;34.91
17521;BME280;8878;-33.370;-70.552;2023-02-11T00:56:39;91767.97;;;29.17;35.08
17521;BME280;8878;-33.370;-70.552;2023-02-11T00:59:08;91771.09;;;29.01;35.25
17521;BME280;8878;-33.370;-70.552;2023-02-11T01:01:38;91764.88;;;28.97;35.51
17521;BME280;8878;-33.370;-70.552;2023-02-11T01:04:07;91758.69;;;28.83;35.43
17521;BME280;8878;-33.370;-70.552;2023-02-11T01:06:36;91765.66;;;28.76;35.69
17521;BME280;8878;-33.370;-70.552;2023-02-11T01:09:08;91771.06;;;28.62;36.34
17521;BME280;8878;-33.370;-70.552;2023-02-11T01:11:37;91769.88;;;28.60;36.15
17521;BME280;8878;-33.370;-70.552;2023-02-11T01:14:06;91773.75;;;28.59;36.04
17521;BME280;8878;-33.370;-70.552;2023-02-11T01:16:36;91781.09;;;28.51;36.24
17521;BME280;8878;-33.370;-70.552;2023-02-11T01:19:06;91780.69;;;28.49;35.86
17521;BME280;8878;-33.370;-70.552;2023-02-11T01:21:36;91780.69;;;28.42;36.88
17521;BME280;8878;-33.370;-70.552;2023-02-11T01:24:07;91784.94;;;28.25;37.62
17521;BME280;8878;-33.370;-70.552;2023-02-11T01:26:37;91778.31;;;28.16;37.20
17521;BME280;8878;-33.370;-70.552;2023-02-11T01:29:06;91787.47;;;27.86;38.52
17521;BME280;8878;-33.370;-70.552;2023-02-11T01:31:36;91787.06;;;27.77;38.78
17521;BME280;8878;-33.370;-70.552;2023-02-11T01:34:06;91783.16;;;27.78;37.96
17521;BME280;8878;-33.370;-70.552;2023-02-11T01:36:35;91790.94;;;27.83;37.72
17521;BME280;8878;-33.370;-70.552;2023-02-11T01:39:07;91785.50;;;27.76;38.30
17521;BME280;8878;-33.370;-70.552;2023-02-11T01:41:37;91791.69;;;27.77;38.20
17521;BME280;8878;-33.370;-70.552;2023-02-11T01:44:21;91785.06;;;27.67;38.41
17521;BME280;8878;-33.370;-70.552;2023-02-11T01:46:51;91787.72;;;27.60;38.61
17521;BME280;8878;-33.370;-70.552;2023-02-11T01:49:24;91788.41;;;27.46;39.02
17521;BME280;8878;-33.370;-70.552;2023-02-11T01:51:57;91793.03;;;27.42;39.37
17521;BME280;8878;-33.370;-70.552;2023-02-11T01:54:32;91800.03;;;27.47;39.12
17521;BME280;8878;-33.370;-70.552;2023-02-11T01:57:28;91785.28;;;27.41;39.10
17521;BME280;8878;-33.370;-70.552;2023-02-11T02:00:07;91794.16;;;27.38;39.44
17521;BME280;8878;-33.370;-70.552;2023-02-11T02:02:42;91793.69;;;27.28;39.14
17521;BME280;8878;-33.370;-70.552;2023-02-11T02:05:21;91787.97;;;27.37;38.13
17521;BME280;8878;-33.370;-70.552;2023-02-11T02:07:59;91793.00;;;27.35;37.03
17521;BME280;8878;-33.370;-70.552;2023-02-11T02:10:36;91795.69;;;27.35;38.41
17521;BME280;8878;-33.370;-70.552;2023-02-11T02:13:06;91783.63;;;27.25;38.86
17521;BME280;8878;-33.370;-70.552;2023-02-11T02:15:37;91776.66;;;27.21;38.45
17521;BME280;8878;-33.370;-70.552;2023-02-11T02:18:16;91774.66;;;27.14;38.21
17521;BME280;8878;-33.370;-70.552;2023-02-11T02:33:28;91762.75;;;26.75;39.45
17521;BME280;8878;-33.370;-70.552;2023-02-11T02:36:07;91762.41;;;26.83;39.46
17521;BME280;8878;-33.370;-70.552;2023-02-11T02:38:45;91764.00;;;26.88;39.35
17521;BME280;8878;-33.370;-70.552;2023-02-11T02:41:18;91764.06;;;26.51;39.63
17521;BME280;8878;-33.370;-70.552;2023-02-11T02:43:49;91760.84;;;26.35;39.61
17521;BME280;8878;-33.370;-70.552;2023-02-11T02:46:20;91761.56;;;26.28;39.72
17521;BME280;8878;-33.370;-70.552;2023-02-11T02:48:52;91762.13;;;26.48;39.19
17521;BME280;8878;-33.370;-70.552;2023-02-11T02:54:43;91752.63;;;26.68;38.83
17521;BME280;8878;-33.370;-70.552;2023-02-11T02:57:28;91758.50;;;26.77;39.13
17521;BME280;8878;-33.370;-70.552;2023-02-11T03:00:13;91752.09;;;26.52;39.22
17521;BME280;8878;-33.370;-70.552;2023-02-11T03:03:14;91745.19;;;26.58;38.98
17521;BME280;8878;-33.370;-70.552;2023-02-11T03:05:53;91750.03;;;26.35;38.91
17521;BME280;8878;-33.370;-70.552;2023-02-11T03:08:29;91753.66;;;26.49;39.87
17521;BME280;8878;-33.370;-70.552;2023-02-11T03:11:03;91744.47;;;26.65;40.15
17521;BME280;8878;-33.370;-70.552;2023-02-11T03:13:34;91741.34;;;26.59;41.64
17521;BME280;8878;-33.370;-70.552;2023-02-11T03:16:08;91746.25;;;26.46;41.77
17521;BME280;8878;-33.370;-70.552;2023-02-11T03:18:42;91750.06;;;26.38;41.90
17521;BME280;8878;-33.370;-70.552;2023-02-11T03:21:15;91749.28;;;26.38;41.45
17521;BME280;8878;-33.370;-70.552;2023-02-11T03:23:50;91749.56;;;26.29;42.63
17521;BME280;8878;-33.370;-70.552;2023-02-11T03:26:26;91747.19;;;26.24;41.99
17521;BME280;8878;-33.370;-70.552;2023-02-11T03:29:01;91741.38;;;26.22;42.60
17521;BME280;8878;-33.370;-70.552;2023-02-11T03:31:37;91741.63;;;26.10;42.64
17521;BME280;8878;-33.370;-70.552;2023-02-11T03:34:10;91737.78;;;26.11;42.74
17521;BME280;8878;-33.370;-70.552;2023-02-11T03:36:47;91740.06;;;26.05;42.92
17521;BME280;8878;-33.370;-70.552;2023-02-11T03:39:26;91734.81;;;25.86;42.29
17521;BME280;8878;-33.370;-70.552;2023-02-11T03:41:59;91730.72;;;25.99;42.87
17521;BME280;8878;-33.370;-70.552;2023-02-11T03:44:35;91731.09;;;25.98;43.38
17521;BME280;8878;-33.370;-70.552;2023-02-11T03:47:09;91731.88;;;25.98;42.80
17521;BME280;8878;-33.370;-70.552;2023-02-11T03:49:40;91728.25;;;25.87;43.87
17521;BME280;8878;-33.370;-70.552;2023-02-11T03:52:13;91721.69;;;25.85;43.00
17521;BME280;8878;-33.370;-70.552;2023-02-11T03:54:45;91724.78;;;25.87;42.65
17521;BME280;8878;-33.370;-70.552;2023-02-11T03:57:17;91717.91;;;25.93;41.81
17521;BME280;8878;-33.370;-70.552;2023-02-11T03:59:51;91716.75;;;25.94;41.04
17521;BME280;8878;-33.370;-70.552;2023-02-11T04:02:22;91722.50;;;25.89;41.59
17521;BME280;8878;-33.370;-70.552;2023-02-11T04:04:53;91717.38;;;25.80;42.21
17521;BME280;8878;-33.370;-70.552;2023-02-11T04:07:24;91707.25;;;25.70;43.27
17521;BME280;8878;-33.370;-70.552;2023-02-11T04:09:53;91711.09;;;25.69;41.98
17521;BME280;8878;-33.370;-70.552;2023-02-11T04:12:23;91717.63;;;25.38;40.86
17521;BME280;8878;-33.370;-70.552;2023-02-11T04:14:52;91708.75;;;25.67;42.58
17521;BME280;8878;-33.370;-70.552;2023-02-11T04:17:21;91713.44;;;25.70;44.53
17521;BME280;8878;-33.370;-70.552;2023-02-11T04:19:50;91715.53;;;25.54;45.06
17521;BME280;8878;-33.370;-70.552;2023-02-11T04:22:20;91710.16;;;25.58;43.79
17521;BME280;8878;-33.370;-70.552;2023-02-11T04:24:51;91713.97;;;25.53;44.64
17521;BME280;8878;-33.370;-70.552;2023-02-11T04:27:20;91711.63;;;25.52;44.30
17521;BME280;8878;-33.370;-70.552;2023-02-11T04:29:50;91707.00;;;25.52;44.53
17521;BME280;8878;-33.370;-70.552;2023-02-11T04:32:20;91704.63;;;25.47;44.74
17521;BME280;8878;-33.370;-70.552;2023-02-11T04:34:49;91696.78;;;25.35;42.99
17521;BME280;8878;-33.370;-70.552;2023-02-11T04:37:18;91695.25;;;25.38;43.87
17521;BME280;8878;-33.370;-70.552;2023-02-11T04:39:47;91697.91;;;25.34;43.82
17521;BME280;8878;-33.370;-70.552;2023-02-11T04:42:19;91687.13;;;25.04;43.91
17521;BME280;8878;-33.370;-70.552;2023-02-11T04:44:48;91692.47;;;25.01;43.39
17521;BME280;8878;-33.370;-70.552;2023-02-11T04:47:17;91683.63;;;25.04;43.89
17521;BME280;8878;-33.370;-70.552;2023-02-11T04:49:47;91682.50;;;25.05;44.02
17521;BME280;8878;-33.370;-70.552;2023-02-11T04:52:16;91688.41;;;25.14;44.32
17521;BME280;8878;-33.370;-70.552;2023-02-11T04:54:45;91690.44;;;25.24;45.45
17521;BME280;8878;-33.370;-70.552;2023-02-11T04:57:15;91685.28;;;25.12;44.39
17521;BME280;8878;-33.370;-70.552;2023-02-11T04:59:46;91678.34;;;25.11;45.50
17521;BME280;8878;-33.370;-70.552;2023-02-11T05:02:15;91676.41;;;25.11;44.39
17521;BME280;8878;-33.370;-70.552;2023-02-11T05:04:44;91672.13;;;25.07;44.23
17521;BME280;8878;-33.370;-70.552;2023-02-11T05:07:14;91671.34;;;25.06;42.03
17521;BME280;8878;-33.370;-70.552;2023-02-11T05:09:43;91676.84;;;25.13;42.25
17521;BME280;8878;-33.370;-70.552;2023-02-11T05:12:14;91667.25;;;25.19;42.58
17521;BME280;8878;-33.370;-70.552;2023-02-11T05:14:46;91667.56;;;24.84;43.33
17521;BME280;8878;-33.370;-70.552;2023-02-11T05:17:15;91666.84;;;24.61;42.74
17521;BME280;8878;-33.370;-70.552;2023-02-11T05:19:44;91663.28;;;24.83;42.66
17521;BME280;8878;-33.370;-70.552;2023-02-11T05:22:14;91657.78;;;25.03;42.22
17521;BME280;8878;-33.370;-70.552;2023-02-11T05:24:43;91658.63;;;25.07;41.09
17521;BME280;8878;-33.370;-70.552;2023-02-11T05:27:13;91656.91;;;24.95;40.30
17521;BME280;8878;-33.370;-70.552;2023-02-11T05:29:42;91654.88;;;25.15;40.97
17521;BME280;8878;-33.370;-70.552;2023-02-11T05:32:14;91648.88;;;25.28;40.63
17521;BME280;8878;-33.370;-70.552;2023-02-11T05:34:43;91650.03;;;24.98;40.15
17521;BME280;8878;-33.370;-70.552;2023-02-11T05:37:12;91652.03;;;25.04;41.44
17521;BME280;8878;-33.370;-70.552;2023-02-11T05:39:42;91651.38;;;24.84;41.49
17521;BME280;8878;-33.370;-70.552;2023-02-11T05:42:11;91642.25;;;24.92;41.25
17521;BME280;8878;-33.370;-70.552;2023-02-11T05:44:41;91645.50;;;25.05;41.13
17521;BME280;8878;-33.370;-70.552;2023-02-11T05:47:12;91640.59;;;25.14;40.44
17521;BME280;8878;-33.370;-70.552;2023-02-11T05:49:42;91633.38;;;25.22;41.29
17521;BME280;8878;-33.370;-70.552;2023-02-11T05:52:11;91629.41;;;25.16;42.25
17521;BME280;8878;-33.370;-70.552;2023-02-11T05:54:41;91629.34;;;25.09;42.03
17521;BME280;8878;-33.370;-70.552;2023-02-11T05:57:10;91627.22;;;24.95;43.30
17521;BME280;8878;-33.370;-70.552;2023-02-11T05:59:40;91626.75;;;24.89;42.94
17521;BME280;8878;-33.370;-70.552;2023-02-11T06:02:10;91632.81;;;24.79;43.50
17521;BME280;8878;-33.370;-70.552;2023-02-11T06:04:41;91626.06;;;24.66;42.83
17521;BME280;8878;-33.370;-70.552;2023-02-11T06:07:10;91633.16;;;24.51;43.36
17521;BME280;8878;-33.370;-70.552;2023-02-11T06:09:39;91629.44;;;24.59;42.98
17521;BME280;8878;-33.370;-70.552;2023-02-11T06:12:09;91627.97;;;24.66;41.66
17521;BME280;8878;-33.370;-70.552;2023-02-11T06:14:38;91630.41;;;24.74;42.90
17521;BME280;8878;-33.370;-70.552;2023-02-11T06:17:07;91628.44;;;24.71;44.28
17521;BME280;8878;-33.370;-70.552;2023-02-11T06:19:37;91626.44;;;24.65;43.88
17521;BME280;8878;-33.370;-70.552;2023-02-11T06:22:08;91625.50;;;24.53;45.29
17521;BME280;8878;-33.370;-70.552;2023-02-11T06:24:37;91628.97;;;24.54;44.62
17521;BME280;8878;-33.370;-70.552;2023-02-11T06:27:07;91618.19;;;24.54;44.46
17521;BME280;8878;-33.370;-70.552;2023-02-11T06:29:36;91615.06;;;24.52;43.87
17521;BME280;8878;-33.370;-70.552;2023-02-11T06:32:05;91626.25;;;24.50;44.03
17521;BME280;8878;-33.370;-70.552;2023-02-11T06:34:35;91625.28;;;24.39;43.97
17521;BME280;8878;-33.370;-70.552;2023-02-11T06:37:04;91615.28;;;24.40;44.78
17521;BME280;8878;-33.370;-70.552;2023-02-11T06:39:36;91616.97;;;24.51;43.25
17521;BME280;8878;-33.370;-70.552;2023-02-11T06:42:05;91612.34;;;24.48;42.65
17521;BME280;8878;-33.370;-70.552;2023-02-11T06:44:34;91611.88;;;24.43;43.61
17521;BME280;8878;-33.370;-70.552;2023-02-11T06:47:04;91612.81;;;24.28;43.84
17521;BME280;8878;-33.370;-70.552;2023-02-11T06:49:33;91606.66;;;24.31;43.58
17521;BME280;8878;-33.370;-70.552;2023-02-11T06:52:03;91605.25;;;24.37;44.12
17521;BME280;8878;-33.370;-70.552;2023-02-11T06:54:32;91616.13;;;24.44;43.34
17521;BME280;8878;-33.370;-70.552;2023-02-11T06:57:03;91617.72;;;24.48;43.64
17521;BME280;8878;-33.370;-70.552;2023-02-11T06:59:41;91619.47;;;24.37;44.60
17521;BME280;8878;-33.370;-70.552;2023-02-11T07:02:11;91616.16;;;23.98;43.38
17521;BME280;8878;-33.370;-70.552;2023-02-11T07:04:40;91606.84;;;24.18;42.53
17521;BME280;8878;-33.370;-70.552;2023-02-11T07:07:09;91609.84;;;24.36;41.68
17521;BME280;8878;-33.370;-70.552;2023-02-11T07:09:39;91609.13;;;24.39;42.93
17521;BME280;8878;-33.370;-70.552;2023-02-11T07:12:12;91607.09;;;24.33;43.25
17521;BME280;8878;-33.370;-70.552;2023-02-11T07:14:41;91602.91;;;24.12;43.99
17521;BME280;8878;-33.370;-70.552;2023-02-11T07:17:10;91610.19;;;24.08;44.05
17521;BME280;8878;-33.370;-70.552;2023-02-11T07:19:39;91607.16;;;24.13;43.68
17521;BME280;8878;-33.370;-70.552;2023-02-11T07:22:09;91607.94;;;24.14;44.52
17521;BME280;8878;-33.370;-70.552;2023-02-11T07:24:38;91612.47;;;24.10;44.05
17521;BME280;8878;-33.370;-70.552;2023-02-11T07:27:09;91602.84;;;24.09;44.03
17521;BME280;8878;-33.370;-70.552;2023-02-11T07:29:40;91606.94;;;23.99;44.67
17521;BME280;8878;-33.370;-70.552;2023-02-11T07:32:09;91600.81;;;24.02;43.30
17521;BME280;8878;-33.370;-70.552;2023-02-11T07:34:39;91594.38;;;24.07;44.63
17521;BME280;8878;-33.370;-70.552;2023-02-11T07:37:08;91600.03;;;24.02;44.78
17521;BME280;8878;-33.370;-70.552;2023-02-11T07:39:37;91602.44;;;24.07;44.74
17521;BME280;8878;-33.370;-70.552;2023-02-11T07:42:06;91605.06;;;24.03;44.30
17521;BME280;8878;-33.370;-70.552;2023-02-11T07:44:37;91595.50;;;24.06;44.39
17521;BME280;8878;-33.370;-70.552;2023-02-11T07:47:07;91601.56;;;23.99;44.13
17521;BME280;8878;-33.370;-70.552;2023-02-11T07:49:36;91603.91;;;24.01;44.02
17521;BME280;8878;-33.370;-70.552;2023-02-11T07:52:05;91605.31;;;23.95;43.78
17521;BME280;8878;-33.370;-70.552;2023-02-11T07:54:35;91603.13;;;24.00;43.25
17521;BME280;8878;-33.370;-70.552;2023-02-11T07:57:04;91608.88;;;23.99;42.79
17521;BME280;8878;-33.370;-70.552;2023-02-11T07:59:33;91595.38;;;23.99;43.77
17521;BME280;8878;-33.370;-70.552;2023-02-11T08:02:04;91604.69;;;24.01;43.63
17521;BME280;8878;-33.370;-70.552;2023-02-11T08:04:34;91594.97;;;23.97;44.55
17521;BME280;8878;-33.370;-70.552;2023-02-11T08:07:03;91594.59;;;23.98;44.29
17521;BME280;8878;-33.370;-70.552;2023-02-11T08:09:33;91599.88;;;23.91;44.46
17521;BME280;8878;-33.370;-70.552;2023-02-11T08:12:02;91602.88;;;23.86;45.01
17521;BME280;8878;-33.370;-70.552;2023-02-11T08:14:31;91604.72;;;23.82;44.72
17521;BME280;8878;-33.370;-70.552;2023-02-11T08:17:01;91605.63;;;23.67;45.07
17521;BME280;8878;-33.370;-70.552;2023-02-11T08:19:32;91596.59;;;23.56;45.86
17521;BME280;8878;-33.370;-70.552;2023-02-11T08:22:01;91602.69;;;23.33;45.32
17521;BME280;8878;-33.370;-70.552;2023-02-11T08:24:31;91606.34;;;23.22;44.85
17521;BME280;8878;-33.370;-70.552;2023-02-11T08:27:00;91605.56;;;23.21;44.26
17521;BME280;8878;-33.370;-70.552;2023-02-11T08:29:29;91606.25;;;23.18;43.69
17521;BME280;8878;-33.370;-70.552;2023-02-11T08:31:59;91607.25;;;23.29;43.74
17521;BME280;8878;-33.370;-70.552;2023-02-11T08:34:28;91598.88;;;23.34;43.33
17521;BME280;8878;-33.370;-70.552;2023-02-11T08:36:59;91606.09;;;23.30;43.53
17521;BME280;8878;-33.370;-70.552;2023-02-11T08:39:28;91602.41;;;23.38;42.60
17521;BME280;8878;-33.370;-70.552;2023-02-11T08:41:58;91606.25;;;23.37;42.71
17521;BME280;8878;-33.370;-70.552;2023-02-11T08:44:27;91606.88;;;23.50;42.75
17521;BME280;8878;-33.370;-70.552;2023-02-11T08:46:57;91604.00;;;23.62;42.37
17521;BME280;8878;-33.370;-70.552;2023-02-11T08:49:26;91601.28;;;23.59;42.08
17521;BME280;8878;-33.370;-70.552;2023-02-11T08:51:56;91617.34;;;23.55;42.48
17521;BME280;8878;-33.370;-70.552;2023-02-11T08:54:31;91609.06;;;23.45;42.20
17521;BME280;8878;-33.370;-70.552;2023-02-11T08:57:01;91614.22;;;23.53;42.58
17521;BME280;8878;-33.370;-70.552;2023-02-11T08:59:30;91619.84;;;23.45;42.32
17521;BME280;8878;-33.370;-70.552;2023-02-11T09:02:00;91606.88;;;23.50;42.10
17521;BME280;8878;-33.370;-70.552;2023-02-11T09:04:29;91620.00;;;23.52;42.25
17521;BME280;8878;-33.370;-70.552;2023-02-11T09:06:58;91626.09;;;23.49;42.29
17521;BME280;8878;-33.370;-70.552;2023-02-11T09:09:28;91623.03;;;23.50;42.58
17521;BME280;8878;-33.370;-70.552;2023-02-11T09:11:59;91621.38;;;23.46;43.15
17521;BME280;8878;-33.370;-70.552;2023-02-11T09:14:28;91618.00;;;23.49;43.42
17521;BME280;8878;-33.370;-70.552;2023-02-11T09:16:57;91615.16;;;23.41;44.71
17521;BME280;8878;-33.370;-70.552;2023-02-11T09:19:27;91620.16;;;23.20;44.20
17521;BME280;8878;-33.370;-70.552;2023-02-11T09:21:56;91621.50;;;22.91;45.02
17521;BME280;8878;-33.370;-70.552;2023-02-11T09:24:25;91631.03;;;22.89;45.17
17521;BME280;8878;-33.370;-70.552;2023-02-11T09:26:55;91627.84;;;22.83;45.16
17521;BME280;8878;-33.370;-70.552;2023-02-11T09:29:26;91625.16;;;22.83;44.70
17521;BME280;8878;-33.370;-70.552;2023-02-11T09:31:55;91620.56;;;22.84;44.70
17521;BME280;8878;-33.370;-70.552;2023-02-11T09:34:24;91628.44;;;22.73;45.64
17521;BME280;8878;-33.370;-70.552;2023-02-11T09:36:57;91625.25;;;22.87;45.23
17521;BME280;8878;-33.370;-70.552;2023-02-11T09:39:27;91626.69;;;22.65;46.29
17521;BME280;8878;-33.370;-70.552;2023-02-11T09:42:17;91638.06;;;22.58;45.66
17521;BME280;8878;-33.370;-70.552;2023-02-11T09:44:54;91640.91;;;22.65;45.26
17521;BME280;8878;-33.370;-70.552;2023-02-11T09:47:28;91643.22;;;22.67;45.38
17521;BME280;8878;-33.370;-70.552;2023-02-11T09:50:02;91639.00;;;22.66;45.87
17521;BME280;8878;-33.370;-70.552;2023-02-11T09:52:37;91644.97;;;22.59;45.42
17521;BME280;8878;-33.370;-70.552;2023-02-11T09:55:16;91657.31;;;22.60;45.22
17521;BME280;8878;-33.370;-70.552;2023-02-11T09:57:48;91656.66;;;22.83;45.38
17521;BME280;8878;-33.370;-70.552;2023-02-11T10:00:23;91664.06;;;22.70;44.94
17521;BME280;8878;-33.370;-70.552;2023-02-11T10:03:20;91662.84;;;22.67;45.26
17521;BME280;8878;-33.370;-70.552;2023-02-11T10:06:16;91670.41;;;22.62;44.97
17521;BME280;8878;-33.370;-70.552;2023-02-11T10:08:57;91666.84;;;22.74;45.39
17521;BME280;8878;-33.370;-70.552;2023-02-11T10:11:33;91669.28;;;22.79;46.58
17521;BME280;8878;-33.370;-70.552;2023-02-11T10:14:14;91670.41;;;22.78;46.83
17521;BME280;8878;-33.370;-70.552;2023-02-11T10:16:59;91676.22;;;22.80;46.43
17521;BME280;8878;-33.370;-70.552;2023-02-11T10:19:45;91683.66;;;22.71;46.13
17521;BME280;8878;-33.370;-70.552;2023-02-11T10:22:23;91682.28;;;22.77;45.53
17521;BME280;8878;-33.370;-70.552;2023-02-11T10:24:56;91681.66;;;22.83;46.08
17521;BME280;8878;-33.370;-70.552;2023-02-11T10:27:30;91686.78;;;22.73;45.62
17521;BME280;8878;-33.370;-70.552;2023-02-11T10:30:01;91688.25;;;22.70;45.49
17521;BME280;8878;-33.370;-70.552;2023-02-11T10:32:39;91692.63;;;22.59;44.93
17521;BME280;8878;-33.370;-70.552;2023-02-11T10:35:14;91692.00;;;22.65;45.46
17521;BME280;8878;-33.370;-70.552;2023-02-11T10:37:44;91697.63;;;22.76;45.34
17521;BME280;8878;-33.370;-70.552;2023-02-11T10:40:14;91694.78;;;22.53;44.69
17521;BME280;8878;-33.370;-70.552;2023-02-11T10:42:47;91694.69;;;22.65;43.91
17521;BME280;8878;-33.370;-70.552;2023-02-11T10:45:22;91701.09;;;22.77;43.98
17521;BME280;8878;-33.370;-70.552;2023-02-11T10:47:54;91700.00;;;22.97;43.59
17521;BME280;8878;-33.370;-70.552;2023-02-11T10:50:26;91705.19;;;23.06;43.30
17521;BME280;8878;-33.370;-70.552;2023-02-11T10:53:12;91710.41;;;22.98;42.38
17521;BME280;8878;-33.370;-70.552;2023-02-11T10:55:52;91718.41;;;22.95;41.73
17521;BME280;8878;-33.370;-70.552;2023-02-11T10:58:25;91716.00;;;23.09;41.91
17521;BME280;8878;-33.370;-70.552;2023-02-11T11:00:56;91727.16;;;23.27;41.02
17521;BME280;8878;-33.370;-70.552;2023-02-11T11:03:31;91727.34;;;23.18;41.16
17521;BME280;8878;-33.370;-70.552;2023-02-11T11:06:04;91713.34;;;23.28;41.72
17521;BME280;8878;-33.370;-70.552;2023-02-11T11:08:42;91713.19;;;23.40;41.20
17521;BME280;8878;-33.370;-70.552;2023-02-11T11:11:13;91712.66;;;23.51;41.56
17521;BME280;8878;-33.370;-70.552;2023-02-11T11:13:54;91717.44;;;23.41;41.07
17521;BME280;8878;-33.370;-70.552;2023-02-11T11:16:26;91718.09;;;23.35;41.71
17521;BME280;8878;-33.370;-70.552;2023-02-11T11:19:18;91713.28;;;23.44;41.98
17521;BME280;8878;-33.370;-70.552;2023-02-11T11:21:49;91713.69;;;23.46;42.27
17521;BME280;8878;-33.370;-70.552;2023-02-11T11:24:21;91715.63;;;23.65;41.96
17521;BME280;8878;-33.370;-70.552;2023-02-11T11:26:53;91718.47;;;23.72;42.42
17521;BME280;8878;-33.370;-70.552;2023-02-11T11:29:30;91720.56;;;23.82;42.49
17521;BME280;8878;-33.370;-70.552;2023-02-11T11:32:02;91722.28;;;23.71;42.33
17521;BME280;8878;-33.370;-70.552;2023-02-11T11:34:37;91722.28;;;23.71;41.70
17521;BME280;8878;-33.370;-70.552;2023-02-11T11:37:11;91729.91;;;23.88;41.75
17521;BME280;8878;-33.370;-70.552;2023-02-11T11:39:41;91723.94;;;23.98;41.32
17521;BME280;8878;-33.370;-70.552;2023-02-11T11:42:25;91722.44;;;24.01;41.17
17521;BME280;8878;-33.370;-70.552;2023-02-11T11:47:35;91729.13;;;24.30;41.29
17521;BME280;8878;-33.370;-70.552;2023-02-11T11:52:49;91741.69;;;24.45;41.02
17521;BME280;8878;-33.370;-70.552;2023-02-11T11:55:24;91742.13;;;24.73;40.40
17521;BME280;8878;-33.370;-70.552;2023-02-11T11:57:53;91739.66;;;24.87;39.29
17521;BME280;8878;-33.370;-70.552;2023-02-11T12:00:27;91747.09;;;24.94;39.00
17521;BME280;8878;-33.370;-70.552;2023-02-11T12:03:40;91746.81;;;24.76;39.09
17521;BME280;8878;-33.370;-70.552;2023-02-11T12:06:25;91745.03;;;25.10;39.52
17521;BME280;8878;-33.370;-70.552;2023-02-11T12:09:07;91741.44;;;25.03;39.37
17521;BME280;8878;-33.370;-70.552;2023-02-11T12:11:52;91745.97;;;25.21;39.04
17521;BME280;8878;-33.370;-70.552;2023-02-11T12:14:31;91754.34;;;25.13;40.03
17521;BME280;8878;-33.370;-70.552;2023-02-11T12:17:08;91740.75;;;25.35;39.02
17521;BME280;8878;-33.370;-70.552;2023-02-11T12:19:57;91746.94;;;25.66;39.19
17521;BME280;8878;-33.370;-70.552;2023-02-11T12:22:38;91750.03;;;25.64;38.81
17521;BME280;8878;-33.370;-70.552;2023-02-11T12:25:24;91749.31;;;25.41;39.10
17521;BME280;8878;-33.370;-70.552;2023-02-11T12:28:09;91748.06;;;25.35;39.18
17521;BME280;8878;-33.370;-70.552;2023-02-11T12:30:55;91754.81;;;25.48;39.25
17521;BME280;8878;-33.370;-70.552;2023-02-11T12:33:52;91759.75;;;25.16;40.23
17521;BME280;8878;-33.370;-70.552;2023-02-11T12:36:33;91771.50;;;25.01;38.89
17521;BME280;8878;-33.370;-70.552;2023-02-11T12:39:16;91762.47;;;25.16;39.59
17521;BME280;8878;-33.370;-70.552;2023-02-11T12:42:02;91770.66;;;25.23;39.67
17521;BME280;8878;-33.370;-70.552;2023-02-11T12:45:00;91768.03;;;25.01;38.82
17521;BME280;8878;-33.370;-70.552;2023-02-11T12:47:41;91767.59;;;25.25;37.90
17521;BME280;8878;-33.370;-70.552;2023-02-11T12:50:19;91761.16;;;25.33;37.68
17521;BME280;8878;-33.370;-70.552;2023-02-11T12:53:06;91768.53;;;25.36;38.86
17521;BME280;8878;-33.370;-70.552;2023-02-11T12:55:41;91759.84;;;25.50;38.94
17521;BME280;8878;-33.370;-70.552;2023-02-11T12:58:17;91761.75;;;25.79;38.60
17521;BME280;8878;-33.370;-70.552;2023-02-11T13:00:51;91770.72;;;25.87;38.31
17521;BME280;8878;-33.370;-70.552;2023-02-11T13:03:25;91771.91;;;25.89;37.00
17521;BME280;8878;-33.370;-70.552;2023-02-11T13:06:02;91766.31;;;26.42;36.92
17521;BME280;8878;-33.370;-70.552;2023-02-11T13:08:36;91770.94;;;26.08;36.76
17521;BME280;8878;-33.370;-70.552;2023-02-11T13:11:08;91772.06;;;26.03;37.49
17521;BME280;8878;-33.370;-70.552;2023-02-11T13:13:48;91764.69;;;26.34;37.84
17521;BME280;8878;-33.370;-70.552;2023-02-11T13:16:27;91778.84;;;26.24;37.71
17521;BME280;8878;-33.370;-70.552;2023-02-11T13:19:05;91772.50;;;26.09;37.33
17521;BME280;8878;-33.370;-70.552;2023-02-11T13:21:48;91768.00;;;26.57;37.12
17521;BME280;8878;-33.370;-70.552;2023-02-11T13:24:25;91770.75;;;26.61;37.52
17521;BME280;8878;-33.370;-70.552;2023-02-11T13:27:03;91777.59;;;26.92;37.37
17521;BME280;8878;-33.370;-70.552;2023-02-11T13:29:52;91784.88;;;26.87;36.22
17521;BME280;8878;-33.370;-70.552;2023-02-11T13:32:25;91784.81;;;26.77;37.45